createdAt,value
2022-12-09T00:01:11.303Z,6.22
2022-12-09T00:03:38.618Z,8.20
2022-12-09T00:06:11.953Z,6.32
2022-12-09T00:08:38.842Z,6.88
2022-12-09T00:11:06.700Z,6.82
2022-12-09T00:13:34.234Z,7.38
2022-12-09T00:16:05.890Z,6.60
2022-12-09T00:18:32.873Z,6.93
2022-12-09T00:20:59.739Z,8.02
2022-12-09T00:23:26.644Z,7.53
2022-12-09T00:25:57.313Z,7.25
2022-12-09T00:28:23.981Z,7.57
2022-12-09T00:30:51.023Z,6.53
2022-12-09T00:33:17.844Z,6.32
2022-12-09T00:35:44.546Z,6.57
2022-12-09T00:38:11.450Z,7.20
2022-12-09T00:40:38.112Z,6.78
2022-12-09T00:43:04.753Z,9.10
2022-12-09T00:45:31.371Z,6.32
2022-12-09T00:47:58.521Z,8.05
2022-12-09T00:50:25.862Z,9.35
2022-12-09T00:52:52.618Z,12.00
2022-12-09T00:55:19.504Z,16.50
2022-12-09T00:57:46.367Z,17.38
2022-12-09T01:00:13.359Z,17.33
2022-12-09T01:02:40.205Z,17.75
2022-12-09T01:05:07.604Z,9.63
2022-12-09T01:07:34.463Z,10.80
2022-12-09T01:10:01.085Z,9.23
2022-12-09T01:12:27.788Z,8.60
2022-12-09T01:14:54.660Z,10.82
2022-12-09T01:17:21.470Z,8.85
2022-12-09T01:19:48.326Z,11.68
2022-12-09T01:22:15.452Z,11.05
2022-12-09T01:24:42.652Z,11.25
2022-12-09T01:27:09.480Z,12.43
2022-12-09T01:29:36.290Z,11.02
2022-12-09T01:32:03.684Z,14.23
2022-12-09T01:34:30.893Z,11.38
2022-12-09T01:36:57.543Z,9.85
2022-12-09T01:39:24.582Z,9.23
2022-12-09T01:41:52.046Z,7.95
2022-12-09T01:44:18.923Z,10.02
2022-12-09T01:46:47.101Z,10.25
2022-12-09T01:49:37.366Z,7.28
2022-12-09T01:52:23.847Z,7.10
2022-12-09T01:54:52.875Z,9.68
2022-12-09T01:57:19.869Z,6.82
2022-12-09T01:59:46.805Z,7.88
2022-12-09T02:02:19.088Z,6.88
2022-12-09T02:04:49.300Z,7.55
2022-12-09T02:07:19.292Z,8.70
2022-12-09T02:09:47.113Z,7.78
2022-12-09T02:12:34.212Z,10.13
2022-12-09T02:15:43.578Z,8.95
2022-12-09T02:18:33.054Z,9.45
2022-12-09T02:21:05.184Z,10.75
2022-12-09T02:23:41.365Z,10.63
2022-12-09T02:26:25.332Z,11.32
2022-12-09T02:29:17.151Z,13.43
2022-12-09T02:34:23.220Z,13.13
2022-12-09T02:37:04.463Z,13.35
2022-12-09T02:39:43.249Z,10.85
2022-12-09T02:42:16.465Z,12.52
2022-12-09T02:44:47.558Z,10.88
2022-12-09T02:47:18.920Z,15.40
2022-12-09T02:49:50.672Z,10.07
2022-12-09T02:52:19.785Z,14.10
2022-12-09T02:54:47.654Z,10.95
2022-12-09T02:57:24.081Z,11.15
2022-12-09T02:59:50.820Z,12.77
2022-12-09T03:02:31.777Z,12.40
2022-12-09T03:05:27.432Z,12.88
2022-12-09T03:08:00.378Z,11.68
2022-12-09T03:10:36.811Z,10.18
2022-12-09T03:13:11.768Z,10.25
2022-12-09T03:15:44.145Z,10.13
2022-12-09T03:18:15.982Z,12.07
2022-12-09T03:20:45.204Z,11.80
2022-12-09T03:23:16.097Z,10.50
2022-12-09T03:25:52.334Z,13.10
2022-12-09T03:28:28.520Z,11.05
2022-12-09T03:30:59.046Z,10.88
2022-12-09T03:33:28.124Z,14.10
2022-12-09T03:35:58.218Z,7.15
2022-12-09T03:38:28.862Z,11.77
2022-12-09T03:41:14.840Z,12.73
2022-12-09T03:43:48.154Z,16.52
2022-12-09T03:46:15.178Z,13.68
2022-12-09T03:48:42.190Z,10.88
2022-12-09T03:51:35.757Z,12.40
2022-12-09T03:54:13.861Z,12.50
2022-12-09T03:56:44.096Z,17.17
2022-12-09T03:59:13.731Z,13.85
2022-12-09T04:01:42.913Z,13.02
2022-12-09T04:04:10.188Z,16.67
2022-12-09T04:06:37.224Z,16.30
2022-12-09T04:09:05.415Z,16.77
2022-12-09T04:11:33.443Z,17.67
2022-12-09T04:14:00.530Z,14.88
2022-12-09T04:16:27.775Z,18.35
2022-12-09T04:18:54.777Z,13.52
2022-12-09T04:21:22.005Z,15.73
2022-12-09T04:23:48.698Z,14.57
2022-12-09T04:26:23.764Z,15.10
2022-12-09T04:28:51.246Z,13.02
2022-12-09T04:31:19.111Z,13.63
2022-12-09T04:33:46.840Z,14.45
2022-12-09T04:36:16.921Z,12.85
2022-12-09T04:38:44.263Z,14.25
2022-12-09T04:41:11.768Z,12.82
2022-12-09T04:43:38.847Z,12.23
2022-12-09T04:46:08.375Z,13.02
2022-12-09T04:48:35.053Z,11.38
2022-12-09T04:51:02.056Z,12.40
2022-12-09T04:53:29.299Z,12.52
2022-12-09T04:56:19.090Z,15.68
2022-12-09T04:58:46.793Z,12.77
2022-12-09T05:01:18.132Z,16.92
2022-12-09T05:03:50.198Z,13.18
2022-12-09T05:06:18.448Z,14.70
2022-12-09T05:08:45.894Z,17.35
2022-12-09T05:11:14.851Z,14.80
2022-12-09T05:13:41.960Z,17.08
2022-12-09T05:16:15.999Z,12.90
2022-12-09T05:18:45.016Z,15.05
2022-12-09T05:21:15.079Z,12.60
2022-12-09T05:23:43.060Z,13.80
2022-12-09T05:26:13.830Z,19.40
2022-12-09T05:28:41.029Z,10.75
2022-12-09T05:31:11.816Z,13.93
2022-12-09T05:33:39.604Z,13.73
2022-12-09T05:36:11.213Z,13.52
2022-12-09T05:38:38.256Z,13.20
2022-12-09T05:41:05.471Z,15.43
2022-12-09T05:43:33.549Z,15.48
2022-12-09T05:46:01.881Z,16.30
2022-12-09T05:48:29.551Z,18.70
2022-12-09T05:51:05.303Z,16.02
2022-12-09T05:53:32.816Z,15.20
2022-12-09T05:56:00.040Z,16.40
2022-12-09T05:58:27.124Z,21.33
2022-12-09T06:00:56.720Z,21.70
2022-12-09T06:03:25.272Z,21.50
2022-12-09T06:05:52.652Z,23.08
2022-12-09T06:08:19.948Z,22.45
2022-12-09T06:10:47.339Z,24.77
2022-12-09T06:13:14.653Z,23.73
2022-12-09T06:15:41.635Z,23.52
2022-12-09T06:18:08.914Z,20.88
2022-12-09T06:20:40.013Z,18.73
2022-12-09T06:23:07.384Z,19.90
2022-12-09T06:25:34.350Z,24.42
2022-12-09T06:28:01.473Z,19.95
2022-12-09T06:30:28.528Z,22.73
2022-12-09T06:32:55.620Z,24.23
2022-12-09T06:35:22.794Z,21.58
2022-12-09T06:37:52.969Z,23.35
2022-12-09T06:40:22.740Z,26.48
2022-12-09T06:42:51.259Z,20.30
2022-12-09T06:45:19.972Z,23.40
2022-12-09T06:47:47.768Z,25.85
2022-12-09T06:50:15.568Z,23.25
2022-12-09T06:52:42.829Z,22.15
2022-12-09T06:55:10.561Z,23.20
2022-12-09T06:57:37.739Z,25.52
2022-12-09T07:00:06.420Z,22.20
2022-12-09T07:02:36.750Z,21.92
2022-12-09T07:05:04.206Z,24.05
2022-12-09T07:07:31.917Z,24.25
2022-12-09T07:09:59.042Z,24.27
2022-12-09T07:12:26.595Z,22.05
2022-12-09T07:14:53.495Z,20.88
2022-12-09T07:17:20.853Z,22.38
2022-12-09T07:19:48.239Z,23.73
2022-12-09T07:22:15.268Z,25.38
2022-12-09T07:24:42.552Z,23.58
2022-12-09T07:27:19.285Z,22.95
2022-12-09T07:29:47.264Z,22.13
2022-12-09T07:32:14.888Z,23.85
2022-12-09T07:34:42.448Z,27.15
2022-12-09T07:37:09.971Z,24.23
2022-12-09T07:39:36.836Z,27.88
2022-12-09T07:42:03.848Z,23.85
2022-12-09T07:44:31.223Z,28.95
2022-12-09T07:46:58.595Z,31.95
2022-12-09T07:49:25.887Z,29.23
2022-12-09T07:51:52.841Z,26.98
2022-12-09T07:54:21.245Z,22.92
2022-12-09T07:56:48.699Z,26.98
2022-12-09T07:59:16.897Z,26.40
2022-12-09T08:01:44.822Z,25.63
2022-12-09T08:04:12.313Z,27.05
2022-12-09T08:06:39.461Z,25.65
2022-12-09T08:09:09.414Z,26.40
2022-12-09T08:11:36.812Z,26.27
2022-12-09T08:14:11.402Z,25.05
2022-12-09T08:16:40.807Z,26.58
2022-12-09T08:19:08.119Z,22.60
2022-12-09T08:21:35.331Z,28.55
2022-12-09T08:24:06.056Z,27.33
2022-12-09T08:26:34.992Z,25.23
2022-12-09T08:29:02.090Z,30.08
2022-12-09T08:31:30.311Z,27.13
2022-12-09T08:33:58.601Z,29.65
2022-12-09T08:36:27.574Z,20.73
2022-12-09T08:38:56.205Z,25.50
2022-12-09T08:41:37.448Z,20.58
2022-12-09T08:44:17.990Z,22.92
2022-12-09T08:46:51.034Z,23.58
2022-12-09T08:49:22.085Z,25.95
2022-12-09T08:51:50.951Z,24.85
2022-12-09T08:54:18.876Z,26.20
2022-12-09T08:56:55.156Z,25.73
2022-12-09T08:59:23.001Z,26.13
2022-12-09T09:01:50.463Z,24.42
2022-12-09T09:04:19.708Z,21.30
2022-12-09T09:06:50.180Z,23.10
2022-12-09T09:09:19.283Z,23.85
2022-12-09T09:11:46.719Z,27.23
2022-12-09T09:14:14.970Z,27.42
2022-12-09T09:16:43.436Z,24.02
2022-12-09T09:19:20.654Z,25.63
2022-12-09T09:21:47.936Z,28.50
2022-12-09T09:24:18.239Z,29.45
2022-12-09T09:26:45.780Z,26.73
2022-12-09T09:29:16.826Z,28.40
2022-12-09T09:31:44.058Z,31.50
2022-12-09T09:34:11.446Z,31.13
2022-12-09T09:36:39.688Z,31.17
2022-12-09T09:39:06.910Z,28.77
2022-12-09T09:41:46.373Z,37.20
2022-12-09T09:44:33.172Z,30.83
2022-12-09T09:47:02.097Z,28.88
2022-12-09T09:49:48.531Z,32.30
2022-12-09T09:52:22.560Z,28.05
2022-12-09T09:54:49.506Z,32.83
2022-12-09T09:57:20.840Z,27.20
2022-12-09T10:00:23.211Z,27.67
2022-12-09T10:03:02.508Z,30.30
2022-12-09T10:05:30.481Z,30.50
2022-12-09T10:08:21.999Z,27.38
2022-12-09T10:11:08.117Z,28.33
2022-12-09T10:14:24.159Z,29.52
2022-12-09T10:16:59.394Z,31.63
2022-12-09T10:19:39.541Z,28.17
2022-12-09T10:22:15.445Z,30.83
2022-12-09T10:24:55.434Z,29.75
2022-12-09T10:27:36.004Z,29.92
2022-12-09T10:30:11.853Z,30.77
2022-12-09T10:32:40.168Z,28.98
2022-12-09T10:35:22.642Z,39.38
2022-12-09T10:37:52.631Z,34.88
2022-12-09T10:40:36.213Z,36.05
2022-12-09T10:43:36.305Z,31.85
2022-12-09T10:46:19.535Z,33.40
2022-12-09T10:48:47.464Z,41.90
2022-12-09T10:51:18.639Z,35.13
2022-12-09T10:53:49.579Z,35.65
2022-12-09T10:56:28.849Z,30.63
2022-12-09T10:59:14.553Z,28.45
2022-12-09T11:01:55.088Z,34.15
2022-12-09T11:04:43.997Z,29.88
2022-12-09T11:07:23.190Z,32.92
2022-12-09T11:09:56.716Z,33.30
2022-12-09T11:12:27.430Z,35.33
2022-12-09T11:14:58.388Z,34.85
2022-12-09T11:17:31.583Z,37.90
2022-12-09T11:20:21.424Z,29.30
2022-12-09T11:23:15.487Z,35.40
2022-12-09T11:25:59.429Z,39.03
2022-12-09T11:28:38.593Z,37.78
2022-12-09T11:31:33.402Z,32.10
2022-12-09T11:34:18.040Z,31.45
2022-12-09T11:36:52.425Z,32.70
2022-12-09T11:39:31.330Z,32.53
2022-12-09T11:42:18.848Z,31.70
2022-12-09T11:44:52.443Z,38.05
2022-12-09T11:47:50.467Z,34.50
2022-12-09T11:50:24.139Z,29.83
2022-12-09T11:53:12.898Z,31.73
2022-12-09T11:55:51.809Z,33.88
2022-12-09T11:58:25.363Z,32.20
2022-12-09T12:00:58.498Z,31.63
2022-12-09T12:03:47.389Z,28.83
2022-12-09T12:06:21.532Z,33.65
2022-12-09T12:09:34.309Z,33.40
2022-12-09T12:12:36.329Z,29.10
2022-12-09T12:15:15.012Z,31.80
2022-12-09T12:17:45.999Z,23.88
2022-12-09T12:20:13.636Z,31.92
2022-12-09T12:22:51.522Z,28.45
2022-12-09T12:25:24.006Z,35.08
2022-12-09T12:28:18.202Z,31.50
2022-12-09T12:31:05.661Z,35.17
2022-12-09T12:34:23.133Z,29.52
2022-12-09T12:36:46.086Z,29.33
2022-12-09T12:39:25.243Z,27.92
2022-12-09T12:42:07.288Z,32.85
2022-12-09T12:45:28.075Z,30.55
2022-12-09T12:47:57.763Z,26.77
2022-12-09T12:51:06.562Z,28.98
2022-12-09T12:53:55.471Z,30.98
2022-12-09T12:56:41.084Z,34.40
2022-12-09T12:59:11.803Z,32.97
2022-12-09T13:01:57.524Z,31.63
2022-12-09T13:04:46.949Z,30.15
2022-12-09T13:07:20.075Z,35.03
2022-12-09T13:10:35.162Z,29.67
2022-12-09T13:13:04.703Z,31.08
2022-12-09T13:15:32.364Z,29.40
2022-12-09T13:18:17.110Z,30.90
2022-12-09T13:20:52.419Z,29.55
2022-12-09T13:23:33.000Z,30.08
2022-12-09T13:26:30.558Z,26.70
2022-12-09T13:29:06.596Z,32.03
2022-12-09T13:31:35.604Z,30.17
2022-12-09T13:34:27.962Z,26.88
2022-12-09T13:36:54.593Z,30.83
2022-12-09T13:39:39.668Z,27.33
2022-12-09T13:42:53.909Z,30.35
2022-12-09T13:45:43.422Z,28.70
2022-12-09T13:48:17.070Z,31.10
2022-12-09T13:50:51.465Z,28.25
2022-12-09T13:53:21.216Z,32.95
2022-12-09T13:55:53.072Z,33.05
2022-12-09T13:58:37.663Z,32.63
2022-12-09T14:01:04.844Z,28.60
2022-12-09T14:03:37.151Z,29.77
2022-12-09T14:06:17.642Z,32.67
2022-12-09T14:08:51.121Z,29.70
2022-12-09T14:11:44.317Z,33.08
2022-12-09T14:14:23.252Z,28.92
2022-12-09T14:16:51.357Z,29.83
2022-12-09T14:19:24.074Z,32.72
2022-12-09T14:22:19.671Z,31.55
2022-12-09T14:25:19.125Z,30.98
2022-12-09T14:28:10.848Z,32.60
2022-12-09T14:31:04.775Z,27.63
2022-12-09T14:33:47.737Z,30.67
2022-12-09T14:36:14.304Z,29.63
2022-12-09T14:39:24.137Z,29.52
2022-12-09T14:41:59.188Z,30.65
2022-12-09T14:44:43.858Z,31.45
2022-12-09T14:47:24.519Z,33.03
2022-12-09T14:49:54.041Z,34.20
2022-12-09T14:52:29.050Z,36.70
2022-12-09T14:54:59.074Z,31.50
2022-12-09T14:57:41.553Z,27.73
2022-12-09T15:00:25.015Z,29.48
2022-12-09T15:03:23.461Z,31.58
2022-12-09T15:05:40.127Z,32.72
2022-12-09T15:08:06.823Z,34.85
2022-12-09T15:10:36.504Z,34.28
2022-12-09T15:13:05.430Z,32.40
2022-12-09T15:15:36.491Z,33.67
2022-12-09T15:18:07.741Z,31.95
2022-12-09T15:20:37.681Z,32.20
2022-12-09T15:23:19.416Z,37.75
2022-12-09T15:25:48.625Z,31.47
2022-12-09T15:28:27.076Z,29.08
2022-12-09T15:30:58.918Z,29.00
2022-12-09T15:33:27.104Z,28.80
2022-12-09T15:36:05.000Z,28.38
2022-12-09T15:38:41.097Z,33.95
2022-12-09T15:41:27.957Z,30.15
2022-12-09T15:43:59.377Z,26.77
2022-12-09T15:46:27.706Z,29.13
2022-12-09T15:48:57.444Z,31.45
2022-12-09T15:51:26.770Z,29.00
2022-12-09T15:53:58.518Z,28.38
2022-12-09T15:56:31.268Z,26.92
2022-12-09T15:59:12.959Z,31.55
2022-12-09T16:01:42.107Z,34.80
2022-12-09T16:04:09.920Z,29.40
2022-12-09T16:06:37.712Z,28.98
2022-12-09T16:09:13.743Z,26.33
2022-12-09T16:11:52.941Z,34.30
2022-12-09T16:14:21.921Z,29.20
2022-12-09T16:17:00.187Z,30.52
2022-12-09T16:19:36.780Z,27.75
2022-12-09T16:22:07.541Z,29.75
2022-12-09T16:25:06.049Z,26.95
2022-12-09T16:27:25.390Z,26.40
2022-12-09T16:30:14.372Z,32.17
2022-12-09T16:32:47.509Z,29.67
2022-12-09T16:35:17.288Z,29.98
2022-12-09T16:38:13.949Z,29.98
2022-12-09T16:40:43.760Z,30.42
2022-12-09T16:43:16.558Z,26.75
2022-12-09T16:45:50.534Z,34.47
2022-12-09T16:48:19.202Z,27.60
2022-12-09T16:50:56.173Z,27.40
2022-12-09T16:53:26.904Z,35.13
2022-12-09T16:55:55.897Z,27.10
2022-12-09T16:58:22.974Z,28.27
2022-12-09T17:00:50.505Z,30.35
2022-12-09T17:03:30.403Z,28.05
2022-12-09T17:05:57.141Z,25.02
2022-12-09T17:08:23.939Z,28.60
2022-12-09T17:10:50.671Z,30.40
2022-12-09T17:13:17.362Z,30.65
2022-12-09T17:15:44.001Z,32.55
2022-12-09T17:18:11.147Z,27.15
2022-12-09T17:20:38.457Z,30.98
2022-12-09T17:23:05.452Z,30.90
2022-12-09T17:25:33.330Z,31.48
2022-12-09T17:28:05.261Z,28.45
2022-12-09T17:30:31.971Z,30.38
2022-12-09T17:32:59.709Z,29.67
2022-12-09T17:35:27.183Z,28.13
2022-12-09T17:37:53.825Z,27.75
2022-12-09T17:40:20.504Z,32.33
2022-12-09T17:42:47.207Z,28.60
2022-12-09T17:45:13.912Z,26.05
2022-12-09T17:47:40.569Z,28.67
2022-12-09T17:50:07.659Z,27.05
2022-12-09T17:52:34.647Z,26.77
2022-12-09T17:55:01.406Z,25.58
2022-12-09T17:57:28.128Z,28.45
2022-12-09T17:59:54.745Z,25.45
2022-12-09T18:02:21.450Z,26.90
2022-12-09T18:04:48.167Z,28.95
2022-12-09T18:07:14.832Z,30.25
2022-12-09T18:09:41.517Z,29.67
2022-12-09T18:12:08.168Z,25.02
2022-12-09T18:14:34.889Z,24.00
2022-12-09T18:17:01.654Z,27.58
2022-12-09T18:19:29.978Z,27.00
2022-12-09T18:21:57.421Z,29.67
2022-12-09T18:24:24.180Z,27.05
2022-12-09T18:26:50.849Z,25.23
2022-12-09T18:29:17.645Z,26.65
2022-12-09T18:31:49.572Z,27.90
2022-12-09T18:34:19.379Z,27.95
2022-12-09T18:36:46.082Z,38.28
2022-12-09T18:39:12.792Z,30.13
2022-12-09T18:41:39.470Z,30.08
2022-12-09T18:44:07.301Z,31.20
2022-12-09T18:46:37.081Z,29.27
2022-12-09T18:49:24.708Z,29.63
2022-12-09T18:51:52.733Z,24.55
2022-12-09T18:54:23.474Z,26.92
2022-12-09T18:56:51.113Z,26.27
2022-12-09T18:59:19.324Z,24.27
2022-12-09T19:01:47.142Z,27.48
2022-12-09T19:04:16.807Z,26.95
2022-12-09T19:06:45.769Z,24.13
2022-12-09T19:09:24.184Z,28.40
2022-12-09T19:11:52.244Z,23.52
2022-12-09T19:14:21.309Z,29.10
2022-12-09T19:16:48.319Z,27.00
2022-12-09T19:19:21.824Z,23.35
2022-12-09T19:21:48.809Z,27.10
2022-12-09T19:24:18.217Z,25.38
2022-12-09T19:26:45.647Z,24.88
2022-12-09T19:29:13.535Z,22.27
2022-12-09T19:31:43.463Z,30.77
2022-12-09T19:34:36.528Z,25.52
2022-12-09T19:37:03.783Z,27.73
2022-12-09T19:39:31.708Z,28.35
2022-12-09T19:41:59.009Z,26.88
2022-12-09T19:44:52.659Z,29.05
2022-12-09T19:47:13.455Z,26.70
2022-12-09T19:49:42.115Z,25.42
2022-12-09T19:52:08.795Z,22.48
2022-12-09T19:54:35.888Z,29.95
2022-12-09T19:57:02.636Z,29.40
2022-12-09T19:59:29.404Z,25.70
2022-12-09T20:01:56.205Z,25.13
2022-12-09T20:07:11.161Z,28.02
2022-12-09T20:09:38.080Z,26.05
2022-12-09T20:12:05.089Z,27.13
2022-12-09T20:14:31.780Z,25.00
2022-12-09T20:16:58.407Z,27.50
2022-12-09T20:19:25.167Z,26.88
2022-12-09T20:21:51.905Z,25.55
2022-12-09T20:24:18.742Z,26.05
2022-12-09T20:26:45.436Z,25.25
2022-12-09T20:29:12.190Z,26.20
2022-12-09T20:31:39.667Z,30.45
2022-12-09T20:34:10.758Z,26.30
2022-12-09T20:36:40.650Z,28.10
2022-12-09T20:39:12.600Z,25.85
2022-12-09T20:41:40.084Z,27.98
2022-12-09T20:44:06.795Z,28.15
2022-12-09T20:46:33.859Z,29.05
2022-12-09T20:49:00.761Z,25.08
2022-12-09T20:51:30.650Z,29.85
2022-12-09T20:53:58.602Z,25.13
2022-12-09T20:56:27.210Z,29.42
2022-12-09T20:58:54.921Z,29.20
2022-12-09T21:01:23.632Z,28.33
2022-12-09T21:03:51.536Z,25.45
2022-12-09T21:06:20.522Z,30.40
2022-12-09T21:08:47.892Z,27.05
2022-12-09T21:11:17.657Z,25.02
2022-12-09T21:13:46.926Z,29.70
2022-12-09T21:16:20.324Z,28.23
2022-12-09T21:18:51.075Z,26.17
2022-12-09T21:21:18.945Z,28.48
2022-12-09T21:23:46.175Z,27.85
2022-12-09T21:26:18.803Z,27.95
2022-12-09T21:28:47.106Z,25.13
2022-12-09T21:31:14.984Z,28.40
2022-12-09T21:33:42.970Z,28.58
2022-12-09T21:36:12.846Z,22.38
2022-12-09T21:38:40.460Z,28.73
2022-12-09T21:41:18.742Z,26.38
2022-12-09T21:43:46.313Z,28.23
2022-12-09T21:46:34.520Z,31.42
2022-12-09T21:49:04.215Z,28.02
2022-12-09T21:51:32.370Z,31.33
2022-12-09T21:53:59.478Z,27.83
2022-12-09T21:56:30.181Z,25.50
2022-12-09T21:58:58.308Z,30.55
2022-12-09T22:01:34.056Z,120.32
2022-12-09T22:04:03.364Z,27.15
2022-12-09T22:06:30.542Z,26.00
2022-12-09T22:09:01.259Z,28.15
2022-12-09T22:11:31.760Z,26.80
2022-12-09T22:14:00.750Z,27.30
2022-12-09T22:16:31.641Z,63.13
2022-12-09T22:19:00.627Z,26.35
2022-12-09T22:21:29.633Z,27.58
2022-12-09T22:23:59.461Z,27.58
2022-12-09T22:26:27.069Z,25.73
2022-12-09T22:28:54.207Z,29.13
2022-12-09T22:31:23.863Z,29.42
2022-12-09T22:33:52.639Z,27.05
2022-12-09T22:36:20.471Z,30.08
2022-12-09T22:38:47.927Z,22.80
2022-12-09T22:41:20.983Z,26.70
2022-12-09T22:43:49.076Z,29.27
2022-12-09T22:46:29.205Z,26.70
2022-12-09T22:48:57.887Z,27.67
2022-12-09T22:51:27.626Z,25.92
2022-12-09T22:53:56.160Z,24.92
2022-12-09T22:56:23.899Z,29.92
2022-12-09T22:58:51.055Z,23.42
2022-12-09T23:01:21.328Z,23.60
2022-12-09T23:03:48.031Z,29.42
2022-12-09T23:06:14.923Z,25.30
2022-12-09T23:08:43.412Z,24.98
2022-12-09T23:11:16.081Z,23.38
2022-12-09T23:13:43.300Z,26.52
2022-12-09T23:16:16.151Z,29.25
2022-12-09T23:18:43.287Z,28.55
2022-12-09T23:21:16.205Z,27.02
2022-12-09T23:23:43.220Z,25.17
2022-12-09T23:26:15.359Z,23.23
2022-12-09T23:28:45.093Z,26.73
2022-12-09T23:31:14.477Z,24.95
2022-12-09T23:33:43.345Z,24.63
2022-12-09T23:36:18.515Z,25.08
2022-12-09T23:38:45.770Z,27.67
2022-12-09T23:41:12.747Z,25.38
2022-12-09T23:43:40.162Z,23.95
2022-12-09T23:46:15.162Z,27.38
2022-12-09T23:48:44.343Z,26.23
2022-12-09T23:51:17.955Z,27.80
2022-12-09T23:53:46.420Z,26.83
2022-12-09T23:56:15.918Z,21.50
2022-12-09T23:58:43.260Z,25.13
